createdAt,value
2017-11-26T00:01:41.457Z,79.03
2017-11-26T00:04:09.810Z,80.62
2017-11-26T00:06:38.151Z,80.37
2017-11-26T00:09:06.524Z,80.89
2017-11-26T00:11:34.888Z,80.31
2017-11-26T00:14:03.282Z,80.68
2017-11-26T00:16:31.636Z,79.69
2017-11-26T00:18:59.976Z,79.62
2017-11-26T00:21:28.320Z,78.34
2017-11-26T00:23:56.667Z,80.19
2017-11-26T00:26:25.046Z,78.91
2017-11-26T00:28:53.392Z,79.21
2017-11-26T00:31:21.737Z,79.42
2017-11-26T00:33:50.093Z,79.30
2017-11-26T00:36:18.489Z,78.65
2017-11-26T00:38:46.891Z,77.51
2017-11-26T00:41:15.246Z,79.13
2017-11-26T00:43:43.644Z,77.95
2017-11-26T00:46:11.983Z,77.82
2017-11-26T00:48:40.360Z,78.49
2017-11-26T00:51:08.711Z,78.41
2017-11-26T00:53:37.087Z,78.13
2017-11-26T00:56:05.441Z,77.81
2017-11-26T00:58:34.037Z,78.71
2017-11-26T01:01:02.380Z,78.47
2017-11-26T01:03:30.725Z,79.16
2017-11-26T01:05:59.072Z,78.60
2017-11-26T01:08:27.432Z,77.72
2017-11-26T01:10:55.808Z,78.19
2017-11-26T01:13:24.147Z,77.54
2017-11-26T01:15:52.497Z,78.52
2017-11-26T01:18:20.877Z,78.77
2017-11-26T01:20:49.220Z,78.32
2017-11-26T01:23:17.567Z,78.23
2017-11-26T01:25:45.923Z,78.00
2017-11-26T01:28:14.272Z,78.24
2017-11-26T01:30:42.649Z,77.67
2017-11-26T01:33:10.991Z,77.14
2017-11-26T01:35:39.344Z,77.42
2017-11-26T01:38:07.687Z,78.04
2017-11-26T01:40:36.032Z,77.53
2017-11-26T01:43:04.505Z,77.55
2017-11-26T01:45:32.853Z,78.09
2017-11-26T01:48:01.208Z,76.99
2017-11-26T01:50:29.563Z,76.53
2017-11-26T01:52:57.915Z,78.51
2017-11-26T01:55:26.299Z,76.08
2017-11-26T01:57:54.648Z,75.82
2017-11-26T02:00:23.025Z,75.03
2017-11-26T02:02:51.375Z,76.25
2017-11-26T02:05:19.750Z,75.40
2017-11-26T02:07:48.102Z,78.02
2017-11-26T02:10:16.460Z,76.66
2017-11-26T02:12:44.813Z,78.28
2017-11-26T02:15:13.165Z,78.54
2017-11-26T02:17:41.554Z,77.70
2017-11-26T02:20:09.921Z,77.10
2017-11-26T02:22:38.265Z,77.18
2017-11-26T02:25:06.618Z,76.32
2017-11-26T02:27:34.964Z,75.48
2017-11-26T02:30:03.450Z,76.80
2017-11-26T02:32:43.472Z,76.52
2017-11-26T02:35:23.595Z,77.96
2017-11-26T02:37:51.941Z,76.32
2017-11-26T02:40:20.292Z,74.96
2017-11-26T02:42:48.639Z,79.86
2017-11-26T02:45:17.009Z,78.93
2017-11-26T02:47:45.370Z,78.18
2017-11-26T02:50:13.726Z,77.78
2017-11-26T02:52:42.068Z,78.47
2017-11-26T02:55:10.414Z,79.40
2017-11-26T02:57:38.798Z,79.96
2017-11-26T03:00:07.148Z,78.53
2017-11-26T03:02:35.500Z,78.61
2017-11-26T03:05:03.851Z,79.36
2017-11-26T03:07:32.195Z,78.42
2017-11-26T03:10:00.549Z,79.96
2017-11-26T03:12:29.251Z,79.95
2017-11-26T03:14:57.640Z,80.76
2017-11-26T03:17:25.984Z,79.07
2017-11-26T03:19:54.331Z,79.95
2017-11-26T03:22:22.680Z,79.12
2017-11-26T03:24:51.024Z,78.54
2017-11-26T03:27:19.408Z,78.77
2017-11-26T03:29:47.756Z,79.37
2017-11-26T03:32:16.107Z,80.69
2017-11-26T03:34:44.482Z,80.78
2017-11-26T03:37:12.826Z,79.45
2017-11-26T03:39:41.202Z,79.19
2017-11-26T03:42:09.536Z,80.50
2017-11-26T03:44:37.890Z,78.82
2017-11-26T03:47:06.255Z,80.82
2017-11-26T03:49:34.624Z,78.45
2017-11-26T03:52:03.000Z,77.76
2017-11-26T03:54:31.358Z,77.76
2017-11-26T03:56:59.708Z,79.42
2017-11-26T03:59:28.089Z,78.00
2017-11-26T04:01:56.435Z,79.45
2017-11-26T04:04:24.781Z,79.96
2017-11-26T04:06:53.167Z,79.06
2017-11-26T04:09:21.514Z,80.67
2017-11-26T04:11:49.879Z,80.34
2017-11-26T04:14:18.233Z,80.85
2017-11-26T04:16:46.585Z,80.79
2017-11-26T04:19:14.969Z,80.83
2017-11-26T04:21:43.323Z,81.03
2017-11-26T04:24:11.680Z,81.46
2017-11-26T04:26:40.024Z,80.08
2017-11-26T04:29:08.368Z,80.70
2017-11-26T04:31:36.789Z,80.77
2017-11-26T04:34:05.124Z,81.60
2017-11-26T04:36:33.463Z,80.33
2017-11-26T04:39:01.801Z,79.66
2017-11-26T04:41:30.156Z,80.51
2017-11-26T04:43:58.552Z,79.14
2017-11-26T04:46:26.932Z,78.30
2017-11-26T04:48:55.281Z,79.09
2017-11-26T04:51:23.622Z,79.68
2017-11-26T04:53:51.969Z,78.57
2017-11-26T04:56:20.327Z,79.18
2017-11-26T05:01:22.143Z,80.12
2017-11-26T05:03:50.490Z,80.37
2017-11-26T05:06:18.840Z,80.34
2017-11-26T05:08:47.191Z,80.36
2017-11-26T05:11:15.555Z,81.11
2017-11-26T05:13:44.029Z,81.11
2017-11-26T05:16:12.365Z,80.25
2017-11-26T05:18:40.708Z,81.39
2017-11-26T05:21:09.064Z,80.36
2017-11-26T05:23:37.407Z,81.50
2017-11-26T05:26:05.783Z,82.22
2017-11-26T05:28:34.128Z,82.29
2017-11-26T05:31:02.475Z,80.05
2017-11-26T05:33:30.844Z,80.75
2017-11-26T05:35:59.178Z,83.13
2017-11-26T05:38:27.556Z,82.66
2017-11-26T05:40:55.903Z,82.17
2017-11-26T05:43:24.248Z,81.33
2017-11-26T05:45:52.590Z,83.47
2017-11-26T05:48:20.927Z,82.42
2017-11-26T05:50:49.405Z,82.64
2017-11-26T05:53:17.751Z,83.39
2017-11-26T05:55:46.100Z,79.86
2017-11-26T05:58:14.447Z,80.96
2017-11-26T06:00:42.796Z,82.50
2017-11-26T06:03:11.163Z,82.52
2017-11-26T06:05:39.509Z,82.55
2017-11-26T06:08:07.851Z,81.32
2017-11-26T06:10:36.200Z,81.79
2017-11-26T06:13:04.540Z,80.67
2017-11-26T06:15:32.914Z,81.44
2017-11-26T06:18:01.260Z,81.93
2017-11-26T06:20:29.607Z,81.47
2017-11-26T06:22:57.987Z,81.80
2017-11-26T06:25:26.331Z,81.36
2017-11-26T06:27:54.685Z,81.54
2017-11-26T06:30:23.059Z,80.33
2017-11-26T06:32:51.396Z,80.92
2017-11-26T06:35:19.762Z,81.61
2017-11-26T06:37:48.103Z,81.84
2017-11-26T06:40:16.453Z,82.71
2017-11-26T06:42:44.836Z,82.29
2017-11-26T06:45:13.184Z,80.99
2017-11-26T06:47:41.524Z,80.12
2017-11-26T06:50:09.872Z,79.58
2017-11-26T06:52:38.264Z,80.39
2017-11-26T06:55:06.636Z,79.56
2017-11-26T06:57:34.980Z,80.59
2017-11-26T07:00:03.329Z,80.39
2017-11-26T07:02:31.662Z,80.64
2017-11-26T07:05:00.000Z,80.85
2017-11-26T07:07:28.381Z,81.84
2017-11-26T07:09:56.733Z,81.95
2017-11-26T07:12:25.198Z,82.21
2017-11-26T07:14:53.539Z,81.31
2017-11-26T07:17:21.884Z,80.78
2017-11-26T07:19:50.232Z,79.92
2017-11-26T07:22:18.585Z,81.02
2017-11-26T07:24:46.955Z,80.75
2017-11-26T07:27:15.302Z,80.88
2017-11-26T07:29:43.647Z,81.01
2017-11-26T07:32:11.996Z,81.05
2017-11-26T07:34:40.393Z,82.28
2017-11-26T07:37:08.754Z,81.27
2017-11-26T07:39:37.100Z,81.30
2017-11-26T07:42:05.438Z,81.48
2017-11-26T07:44:33.787Z,81.32
2017-11-26T07:47:02.161Z,82.33
2017-11-26T07:49:30.506Z,79.82
2017-11-26T07:51:58.873Z,80.50
2017-11-26T07:54:27.229Z,82.23
2017-11-26T07:56:55.595Z,83.60
2017-11-26T07:59:23.967Z,82.99
2017-11-26T08:01:52.305Z,82.69
2017-11-26T08:04:20.643Z,81.79
2017-11-26T08:06:49.016Z,80.92
2017-11-26T08:09:17.356Z,80.56
2017-11-26T08:11:45.704Z,81.29
2017-11-26T08:14:14.049Z,81.25
2017-11-26T08:16:42.391Z,82.90
2017-11-26T08:19:10.756Z,83.66
2017-11-26T08:21:39.133Z,82.49
2017-11-26T08:24:07.474Z,81.53
2017-11-26T08:26:35.857Z,81.21
2017-11-26T08:29:04.218Z,81.47
2017-11-26T08:31:32.587Z,81.25
2017-11-26T08:34:00.941Z,81.07
2017-11-26T08:36:29.284Z,81.70
2017-11-26T08:38:57.661Z,82.50
2017-11-26T08:41:26.017Z,82.15
2017-11-26T08:43:54.371Z,81.73
2017-11-26T08:46:22.721Z,82.36
2017-11-26T08:48:51.068Z,80.94
2017-11-26T08:51:19.501Z,81.59
2017-11-26T08:53:47.849Z,81.82
2017-11-26T08:56:16.189Z,83.45
2017-11-26T08:58:44.664Z,82.89
2017-11-26T09:01:13.011Z,84.51
2017-11-26T09:03:41.369Z,84.35
2017-11-26T09:06:09.750Z,81.95
2017-11-26T09:08:38.569Z,82.12
2017-11-26T09:11:06.955Z,83.05
2017-11-26T09:13:35.309Z,83.29
2017-11-26T09:16:03.651Z,83.01
2017-11-26T09:18:31.993Z,83.50
2017-11-26T09:21:00.343Z,82.91
2017-11-26T09:23:28.814Z,83.74
2017-11-26T09:25:57.153Z,83.71
2017-11-26T09:28:25.495Z,84.82
2017-11-26T09:30:53.850Z,84.14
2017-11-26T09:33:22.192Z,84.76
2017-11-26T09:35:50.578Z,84.51
2017-11-26T09:38:18.925Z,83.04
2017-11-26T09:40:47.265Z,80.28
2017-11-26T09:43:15.608Z,77.20
2017-11-26T09:45:43.948Z,75.42
2017-11-26T09:48:12.334Z,75.21
2017-11-26T09:50:40.680Z,77.44
2017-11-26T09:53:09.057Z,77.62
2017-11-26T09:55:37.412Z,80.28
2017-11-26T09:58:05.763Z,81.13
2017-11-26T10:00:34.131Z,80.54
2017-11-26T10:03:02.476Z,82.06
2017-11-26T10:05:30.821Z,79.85
2017-11-26T10:07:59.161Z,82.60
2017-11-26T10:10:27.501Z,82.67
2017-11-26T10:12:55.888Z,82.73
2017-11-26T10:15:24.228Z,81.87
2017-11-26T10:17:52.579Z,81.26
2017-11-26T10:20:20.951Z,81.39
2017-11-26T10:22:49.282Z,81.08
2017-11-26T10:25:17.616Z,79.96
2017-11-26T10:27:45.952Z,78.90
2017-11-26T10:30:14.296Z,79.69
2017-11-26T10:32:42.664Z,78.83
2017-11-26T10:35:11.005Z,79.54
2017-11-26T10:37:39.346Z,78.15
2017-11-26T10:40:07.721Z,79.13
2017-11-26T10:42:36.066Z,78.25
2017-11-26T10:45:04.532Z,79.43
2017-11-26T10:47:32.880Z,79.70
2017-11-26T10:50:01.224Z,79.73
2017-11-26T10:52:29.572Z,80.18
2017-11-26T10:54:57.920Z,78.86
2017-11-26T10:57:26.291Z,77.73
2017-11-26T10:59:54.635Z,77.17
2017-11-26T11:02:22.977Z,77.18
2017-11-26T11:04:51.311Z,78.33
2017-11-26T11:07:19.657Z,77.40
2017-11-26T11:09:47.998Z,75.16
2017-11-26T11:12:16.377Z,75.28
2017-11-26T11:14:44.723Z,75.72
2017-11-26T11:17:13.061Z,75.31
2017-11-26T11:19:41.399Z,75.57
2017-11-26T11:22:09.763Z,77.44
2017-11-26T11:24:38.137Z,78.26
2017-11-26T11:27:06.480Z,78.10
2017-11-26T11:29:34.812Z,78.16
2017-11-26T11:32:03.151Z,77.49
2017-11-26T11:34:31.518Z,74.63
2017-11-26T11:36:59.885Z,77.06
2017-11-26T11:39:28.226Z,76.65
2017-11-26T11:41:56.564Z,77.10
2017-11-26T11:44:24.948Z,76.87
2017-11-26T11:46:53.292Z,76.86
2017-11-26T11:49:21.632Z,80.04
2017-11-26T11:51:49.972Z,81.17
2017-11-26T11:54:18.315Z,81.33
2017-11-26T11:56:46.732Z,79.53
2017-11-26T11:59:15.075Z,79.63
2017-11-26T12:01:43.412Z,78.62
2017-11-26T12:04:11.803Z,80.05
2017-11-26T12:06:40.143Z,78.90
2017-11-26T12:09:08.534Z,78.93
2017-11-26T12:11:36.869Z,77.07
2017-11-26T12:14:05.201Z,76.12
2017-11-26T12:16:33.544Z,78.90
2017-11-26T12:19:01.888Z,78.43
2017-11-26T12:21:30.292Z,78.66
2017-11-26T12:23:58.656Z,79.85
2017-11-26T12:26:26.989Z,76.56
2017-11-26T12:28:55.356Z,77.58
2017-11-26T12:31:23.726Z,79.87
2017-11-26T12:33:52.092Z,79.59
2017-11-26T12:36:20.432Z,79.91
2017-11-26T12:38:48.785Z,78.47
2017-11-26T12:41:17.118Z,79.52
2017-11-26T12:43:45.467Z,80.60
2017-11-26T12:46:13.846Z,79.84
2017-11-26T12:48:42.176Z,81.40
2017-11-26T12:51:10.533Z,80.63
2017-11-26T12:53:38.886Z,80.19
2017-11-26T12:56:07.239Z,79.42
2017-11-26T12:58:35.599Z,80.44
2017-11-26T13:01:03.964Z,80.45
2017-11-26T13:03:32.302Z,79.54
2017-11-26T13:06:00.640Z,79.55
2017-11-26T13:08:28.975Z,79.80
2017-11-26T13:10:57.355Z,81.38
2017-11-26T13:13:25.714Z,80.00
2017-11-26T13:15:54.069Z,79.83
2017-11-26T13:18:22.404Z,78.94
2017-11-26T13:20:50.789Z,78.30
2017-11-26T13:23:19.173Z,78.19
2017-11-26T13:25:47.521Z,77.13
2017-11-26T13:28:15.859Z,79.03
2017-11-26T13:30:44.213Z,78.12
2017-11-26T13:33:12.556Z,78.14
2017-11-26T13:35:40.928Z,77.77
2017-11-26T13:38:09.294Z,78.52
2017-11-26T13:40:37.652Z,78.06
2017-11-26T13:43:05.995Z,80.62
2017-11-26T13:45:34.351Z,78.93
2017-11-26T13:48:02.755Z,78.12
2017-11-26T13:50:31.101Z,79.02
2017-11-26T13:52:59.482Z,79.25
2017-11-26T13:55:27.825Z,80.00
2017-11-26T13:57:56.193Z,80.02
2017-11-26T14:00:24.553Z,79.20
2017-11-26T14:02:52.925Z,78.36
2017-11-26T14:05:21.293Z,77.64
2017-11-26T14:07:49.652Z,79.41
2017-11-26T14:10:18.019Z,78.97
2017-11-26T14:12:46.380Z,77.92
2017-11-26T14:15:14.730Z,78.18
2017-11-26T14:17:43.092Z,79.18
2017-11-26T14:20:11.436Z,78.48
2017-11-26T14:22:39.786Z,77.25
2017-11-26T14:25:08.130Z,76.23
2017-11-26T14:27:36.729Z,76.07
2017-11-26T14:30:05.063Z,77.23
2017-11-26T14:32:33.408Z,78.08
2017-11-26T14:35:01.781Z,79.78
2017-11-26T14:37:30.126Z,79.70
2017-11-26T14:39:58.496Z,77.88
2017-11-26T14:42:26.841Z,78.09
2017-11-26T14:44:55.823Z,79.41
2017-11-26T14:47:24.204Z,78.31
2017-11-26T14:49:52.577Z,80.22
2017-11-26T14:52:20.917Z,78.28
2017-11-26T14:54:49.272Z,77.96
2017-11-26T14:57:17.620Z,78.01
2017-11-26T14:59:45.972Z,79.48
2017-11-26T15:02:14.317Z,78.98
2017-11-26T15:04:42.665Z,79.52
2017-11-26T15:07:11.006Z,78.00
2017-11-26T15:09:39.390Z,77.88
2017-11-26T15:12:07.735Z,78.51
2017-11-26T15:14:36.097Z,78.93
2017-11-26T15:17:04.451Z,76.92
2017-11-26T15:19:32.795Z,77.79
2017-11-26T15:22:01.189Z,76.46
2017-11-26T15:24:29.551Z,77.34
2017-11-26T15:26:57.902Z,76.06
2017-11-26T15:29:26.277Z,78.88
2017-11-26T15:31:54.615Z,79.41
2017-11-26T15:34:22.964Z,78.69
2017-11-26T15:36:51.351Z,78.23
2017-11-26T15:39:19.705Z,78.82
2017-11-26T15:41:48.052Z,79.39
2017-11-26T15:44:16.436Z,79.83
2017-11-26T15:46:44.800Z,78.49
2017-11-26T15:49:13.155Z,78.66
2017-11-26T15:51:41.540Z,79.50
2017-11-26T15:54:09.891Z,79.15
2017-11-26T15:56:38.251Z,78.81
2017-11-26T15:59:06.629Z,76.36
2017-11-26T16:01:35.353Z,77.97
2017-11-26T16:04:03.734Z,78.33
2017-11-26T16:06:32.059Z,77.01
2017-11-26T16:09:00.412Z,77.54
2017-11-26T16:11:28.789Z,78.03
2017-11-26T16:13:57.143Z,80.07
2017-11-26T16:16:25.493Z,80.20
2017-11-26T16:18:53.836Z,78.83
2017-11-26T16:21:22.184Z,81.07
2017-11-26T16:23:50.575Z,79.50
2017-11-26T16:26:18.920Z,79.65
2017-11-26T16:28:47.276Z,81.18
2017-11-26T16:31:15.640Z,78.78
2017-11-26T16:33:44.005Z,78.21
2017-11-26T16:36:12.395Z,79.28
2017-11-26T16:38:40.743Z,78.30
2017-11-26T16:41:09.155Z,78.07
2017-11-26T16:43:37.795Z,77.74
2017-11-26T16:46:06.263Z,77.96
2017-11-26T16:48:34.648Z,77.77
2017-11-26T16:51:03.010Z,79.17
2017-11-26T16:53:31.401Z,78.54
2017-11-26T16:55:59.765Z,78.11
2017-11-26T16:58:28.124Z,78.63
2017-11-26T17:00:56.509Z,79.33
2017-11-26T17:03:24.871Z,77.32
2017-11-26T17:05:54.167Z,77.32
2017-11-26T17:08:22.569Z,78.08
2017-11-26T17:10:50.921Z,78.36
2017-11-26T17:13:19.580Z,77.11
2017-11-26T17:15:47.933Z,77.62
2017-11-26T17:18:16.281Z,78.91
2017-11-26T17:20:44.634Z,79.47
2017-11-26T17:23:12.984Z,79.18
2017-11-26T17:25:42.608Z,76.58
2017-11-26T17:28:10.969Z,77.66
2017-11-26T17:30:39.459Z,78.16
2017-11-26T17:33:07.815Z,78.38
2017-11-26T17:35:36.180Z,78.02
2017-11-26T17:38:04.559Z,77.91
2017-11-26T17:40:32.931Z,77.88
2017-11-26T17:43:01.324Z,77.71
2017-11-26T17:45:29.759Z,76.63
2017-11-26T17:47:58.967Z,76.21
2017-11-26T17:50:30.289Z,77.46
2017-11-26T17:52:58.689Z,77.21
2017-11-26T17:55:27.072Z,78.95
2017-11-26T17:57:55.472Z,79.54
2017-11-26T18:00:23.832Z,79.27
2017-11-26T18:02:52.189Z,77.01
2017-11-26T18:05:20.602Z,79.55
2017-11-26T18:07:48.966Z,78.77
2017-11-26T18:10:18.974Z,80.11
2017-11-26T18:12:47.332Z,76.85
2017-11-26T18:15:15.690Z,78.13
2017-11-26T18:17:45.821Z,76.65
2017-11-26T18:20:14.170Z,77.25
2017-11-26T18:22:42.528Z,78.70
2017-11-26T18:25:11.008Z,77.48
2017-11-26T18:27:39.389Z,75.81
2017-11-26T18:30:07.794Z,77.48
2017-11-26T18:32:36.310Z,77.52
2017-11-26T18:35:04.675Z,76.93
2017-11-26T18:37:33.020Z,77.23
2017-11-26T18:40:01.403Z,76.49
2017-11-26T18:42:29.804Z,78.32
2017-11-26T18:44:58.172Z,77.38
2017-11-26T18:47:26.550Z,79.00
2017-11-26T18:49:54.899Z,77.04
2017-11-26T18:52:23.243Z,80.34
2017-11-26T18:54:51.637Z,79.24
2017-11-26T18:57:22.056Z,79.61
2017-11-26T18:59:50.399Z,78.39
2017-11-26T19:02:18.755Z,77.90
2017-11-26T19:04:47.104Z,77.41
2017-11-26T19:07:15.496Z,77.04
2017-11-26T19:09:43.856Z,77.64
2017-11-26T19:12:12.222Z,75.71
2017-11-26T19:14:41.241Z,74.50
2017-11-26T19:17:09.590Z,77.60
2017-11-26T19:19:37.946Z,76.60
2017-11-26T19:22:06.313Z,75.71
2017-11-26T19:24:34.671Z,75.84
2017-11-26T19:27:03.092Z,76.91
2017-11-26T19:29:31.472Z,76.29
2017-11-26T19:31:59.825Z,77.27
2017-11-26T19:34:28.176Z,78.50
2017-11-26T19:36:56.579Z,76.78
2017-11-26T19:39:24.928Z,76.36
2017-11-26T19:41:53.358Z,76.54
2017-11-26T19:44:21.767Z,77.97
2017-11-26T19:46:50.128Z,77.99
2017-11-26T19:49:18.516Z,76.12
2017-11-26T19:51:46.926Z,76.36
2017-11-26T19:54:15.367Z,76.36
2017-11-26T19:56:43.708Z,76.23
2017-11-26T19:59:12.093Z,76.06
2017-11-26T20:01:40.493Z,77.36
2017-11-26T20:04:08.846Z,76.60
2017-11-26T20:06:37.235Z,79.10
2017-11-26T20:09:05.592Z,77.06
2017-11-26T20:11:33.976Z,78.67
2017-11-26T20:14:02.348Z,77.95
2017-11-26T20:16:30.689Z,76.44
2017-11-26T20:18:59.084Z,75.67
2017-11-26T20:21:27.434Z,75.72
2017-11-26T20:23:55.797Z,76.48
2017-11-26T20:26:24.237Z,75.41
2017-11-26T20:28:53.702Z,75.65
2017-11-26T20:31:22.521Z,75.95
2017-11-26T20:33:53.660Z,76.16
2017-11-26T20:36:22.018Z,76.84
2017-11-26T20:38:51.182Z,78.26
2017-11-26T20:41:19.680Z,75.32
2017-11-26T20:43:48.155Z,77.89
2017-11-26T20:46:16.605Z,77.65
2017-11-26T20:48:44.949Z,76.98
2017-11-26T20:51:13.354Z,76.21
2017-11-26T20:53:41.720Z,76.41
2017-11-26T20:56:10.071Z,77.83
2017-11-26T20:58:40.764Z,76.82
2017-11-26T21:01:09.117Z,76.71
2017-11-26T21:03:37.464Z,77.82
2017-11-26T21:06:05.820Z,77.52
2017-11-26T21:08:34.397Z,77.75
2017-11-26T21:11:02.792Z,75.78
2017-11-26T21:13:31.153Z,75.89
2017-11-26T21:15:59.504Z,75.27
2017-11-26T21:18:27.858Z,77.67
2017-11-26T21:20:56.248Z,78.31
2017-11-26T21:23:24.604Z,79.18
2017-11-26T21:25:52.959Z,78.49
2017-11-26T21:28:21.313Z,78.14
2017-11-26T21:30:49.735Z,77.48
2017-11-26T21:33:18.225Z,78.08
2017-11-26T21:35:46.575Z,79.24
2017-11-26T21:38:14.929Z,78.10
2017-11-26T21:40:43.275Z,77.56
2017-11-26T21:43:11.633Z,78.68
2017-11-26T21:45:40.104Z,77.86
2017-11-26T21:48:08.458Z,78.25
2017-11-26T21:50:36.811Z,78.54
2017-11-26T21:53:05.164Z,78.86
2017-11-26T21:55:33.521Z,79.60
2017-11-26T21:58:02.004Z,78.81
2017-11-26T22:00:30.411Z,78.66
2017-11-26T22:02:58.717Z,76.29
2017-11-26T22:05:27.064Z,76.34
2017-11-26T22:07:55.416Z,76.17
2017-11-26T22:10:23.795Z,76.82
2017-11-26T22:12:52.150Z,78.54
2017-11-26T22:15:20.508Z,78.41
2017-11-26T22:17:48.952Z,78.42
2017-11-26T22:20:17.527Z,77.62
2017-11-26T22:22:46.058Z,77.73
2017-11-26T22:25:14.619Z,77.32
2017-11-26T22:27:43.103Z,77.59
2017-11-26T22:30:11.584Z,76.80
2017-11-26T22:32:39.992Z,76.27
2017-11-26T22:35:08.372Z,75.21
2017-11-26T22:37:36.996Z,76.03
2017-11-26T22:40:05.341Z,76.35
2017-11-26T22:42:33.703Z,75.20
2017-11-26T22:45:02.049Z,78.31
2017-11-26T22:47:30.404Z,76.32
2017-11-26T22:49:58.756Z,78.16
2017-11-26T22:52:27.108Z,77.41
2017-11-26T22:54:55.462Z,78.79
2017-11-26T22:57:23.811Z,79.02
2017-11-26T22:59:52.166Z,78.98
2017-11-26T23:02:21.431Z,77.24
2017-11-26T23:04:49.784Z,77.04
2017-11-26T23:07:18.133Z,78.15
2017-11-26T23:09:46.483Z,78.87
2017-11-26T23:12:14.839Z,78.08
2017-11-26T23:14:43.187Z,77.89
2017-11-26T23:17:11.564Z,80.16
2017-11-26T23:19:39.908Z,79.80
2017-11-26T23:22:08.256Z,81.30
2017-11-26T23:24:36.600Z,78.04
2017-11-26T23:27:04.969Z,75.86
2017-11-26T23:29:33.323Z,77.70
2017-11-26T23:32:01.692Z,77.45
2017-11-26T23:34:30.040Z,77.46
2017-11-26T23:36:58.388Z,77.36
2017-11-26T23:39:26.748Z,79.53
2017-11-26T23:41:55.125Z,78.26
2017-11-26T23:44:23.472Z,77.14
2017-11-26T23:46:51.828Z,77.17
2017-11-26T23:49:20.205Z,76.31
2017-11-26T23:51:48.556Z,75.70
2017-11-26T23:54:16.981Z,75.51
2017-11-26T23:56:45.331Z,78.59
2017-11-26T23:59:14.264Z,76.85
